Latest Coastal Weather Observations for South Johnstone

IDQ60701

Issued at 2:02 pm EST Friday 27 February 2015 (issued every 10 minutes, with the page automatically refreshed every 10 minutes)

About coastal observations | Map of coastal stations | Coastal observations for QLD | Marine services | Other Formats
Station Details ID: 032037 Name: SOUTH JOHNSTONE EXP STN Lat: -17.61 Lon: 146.00 Height: 18.3 m
Data from the previous 72 hours. | See also: Recent months at South Johnstone
Date/Time
EST
Temp

°C
Wind Pressure Rain
since 9am
mm
Weather Cloud Vis
km
Sea
Height
m
Swell
Dir
 
Speed
knots
Gust
knots
hPa Trend Height
m
Period
s
Dir
27/02:00pm 31.7 NE 8 13 1006.0 - 0.0 - - - - - - -
27/01:30pm 31.8 NE 7 10 1006.1 - 0.0 - - - - - - -
27/01:00pm 31.8 NE 6 11 1006.6 - 0.0 - - - - - - -
27/12:30pm 31.9 E 3 7 1007.3 - 0.0 - - - - - - -
27/12:00pm 31.8 SE 4 6 1007.6 - 0.0 - - - - - - -
27/11:30am 31.7 CALM 0 1 1008.1 - 0.0 - - - - - - -
27/11:00am 31.4 CALM 0 3 1008.2 - 0.0 - - - - - - -
27/10:30am 30.3 NW 1 5 1008.2 - 0.0 - - - - - - -
27/10:00am 29.6 CALM 0 3 1008.4 - 0.0 - - - - - - -
27/09:30am 28.9 CALM 0 3 1008.5 - 0.0 - - - - - - -
27/09:00am 27.9 NW 3 4 1008.2 - 0.0 - - - - - - -
27/08:30am 26.7 W 1 5 1008.4 - 0.0 - - - - - - -
27/08:00am 25.2 W 2 4 1008.2 - 0.0 - - - - - - -
27/07:30am 23.4 WSW 4 7 1008.1 - 0.0 - - - - - - -
27/07:00am 22.8 WNW 3 5 1008.0 - 0.0 - - - - - - -
27/06:30am 22.1 CALM 0 3 1007.8 - 0.0 - - - - - - -
27/06:00am 22.1 W 2 4 1007.4 - 0.0 - - - - - - -
27/05:30am 22.2 WSW 1 5 1007.2 - 0.0 - - - - - - -
27/05:00am 22.2 WSW 5 6 1006.9 - 0.0 - - - - - - -
27/04:30am 22.2 WSW 6 7 1006.7 - 0.0 - - - - - - -
27/04:00am 22.2 W 2 4 1006.6 - 0.0 - - - - - - -
27/03:30am 22.6 W 3 5 1006.6 - 0.0 - - - - - - -
27/03:00am 22.7 W 2 3 1006.7 - 0.0 - - - - - - -
27/02:30am 22.8 SW 1 5 1007.0 - 0.0 - - - - - - -
27/02:00am 22.9 WNW 3 5 1007.0 - 0.0 - - - - - - -
27/01:30am 23.0 WNW 4 5 1007.3 - 0.0 - - - - - - -
27/01:00am 23.1 CALM 0 3 1007.7 - 0.0 - - - - - - -
27/12:30am 23.3 W 3 5 1007.7 - 0.0 - - - - - - -
27/12:00am 23.5 WNW 1 3 1008.2 - 0.0 - - - - - - -
 
Date/Time
EST
Temp

°C
Wind Pressure Rain
since 9am
mm
Weather Cloud Vis
km
Sea
Height
m
Swell
Dir
 
Speed
knots
Gust
knots
hPa Trend Height
m
Period
s
Dir
26/11:30pm 23.6 W 1 4 1008.7 - 0.0 - - - - - - -
26/11:00pm 23.9 W 4 7 1008.9 - 0.0 - - - - - - -
26/10:30pm 23.9 W 3 5 1008.8 - 0.0 - - - - - - -
26/10:00pm 24.1 WSW 5 7 1008.6 - 0.0 - - - - - - -
26/09:30pm 24.6 W 3 5 1008.2 - 0.0 - - - - - - -
26/09:00pm 24.8 CALM 0 0 1007.5 - 0.0 - - - - - - -
26/08:30pm 25.4 WSW 4 5 1007.4 - 0.0 - - - - - - -
26/08:00pm 25.5 CALM 0 0 1007.1 - 0.0 - - - - - - -
26/07:30pm 26.1 CALM 0 0 1006.5 - 0.0 - - - - - - -
26/07:00pm 27.0 CALM 0 0 1006.3 - 0.0 - - - - - - -
26/06:30pm 28.0 E 4 6 1006.1 - 0.0 - - - - - - -
26/06:00pm 28.8 E 5 6 1005.8 - 0.0 - - - - - - -
26/05:30pm 29.7 E 6 8 1005.4 - 0.0 - - - - - - -
26/05:00pm 30.0 E 7 10 1005.3 - 0.0 - - - - - - -
26/04:30pm 30.6 ESE 6 9 1005.3 - 0.0 - - - - - - -
26/04:00pm 31.0 ESE 7 11 1005.4 - 0.0 - - - - - - -
26/03:30pm 31.0 ESE 6 10 1005.4 - 0.0 - - - - - - -
26/03:00pm 31.0 SE 6 11 1005.4 - 0.0 - - - - - - -
26/02:30pm 31.0 SE 8 10 1005.7 - 0.0 - - - - - - -
26/02:00pm 31.3 ESE 7 11 1006.0 - 0.0 - - - - - - -
26/01:30pm 31.0 SE 8 12 1006.6 - 0.0 - - - - - - -
26/01:00pm 31.1 SE 8 11 1007.1 - 0.0 - - - - - - -
26/12:30pm 31.2 SE 7 10 1007.5 - 0.0 - - - - - - -
26/12:00pm 31.1 SE 7 12 1008.0 - 0.0 - - - - - - -
26/11:30am 30.8 S 6 10 1008.6 - 0.0 - - - - - - -
26/11:00am 30.5 ESE 5 10 1008.8 - 0.0 - - - - - - -
26/10:30am 29.3 CALM 0 3 1009.1 - 0.0 - - - - - - -
26/10:00am 29.0 SW 5 7 1009.2 - 0.0 - - - - - - -
26/09:30am 29.5 ESE 1 5 1009.1 - 0.0 - - - - - - -
26/09:00am 28.7 S 2 4 1009.1 - 15.4 - - - - - - -
26/08:30am 26.3 CALM 0 0 1009.0 - 15.4 - - - - - - -
26/08:00am 25.3 WSW 2 5 1009.0 - 15.4 - - - - - - -
26/07:30am 23.8 NW 1 4 1008.6 - 15.4 - - - - - - -
26/07:00am 23.3 CALM 0 3 1008.4 - 15.4 - - - - - - -
26/06:30am 23.2 W 1 4 1008.3 - 15.4 - - - - - - -
26/06:00am 23.2 W 1 4 1008.0 - 15.4 - - - - - - -
26/05:30am 23.2 W 2 3 1008.1 - 15.4 - - - - - - -
26/05:00am 23.0 W 2 5 1008.1 - 15.4 - - - - - - -
26/04:30am 23.0 CALM 0 0 1008.0 - 15.2 - - - - - - -
26/04:00am 23.0 CALM 0 1 1007.6 - 15.2 - - - - - - -
26/03:30am 23.0 CALM 0 0 1007.5 - 15.2 - - - - - - -
26/03:00am 23.1 WNW 3 4 1007.5 - 15.2 - - - - - - -
26/02:30am 23.1 CALM 0 3 1007.7 - 15.2 - - - - - - -
26/02:00am 23.2 WNW 1 4 1007.8 - 15.2 - - - - - - -
26/01:30am 23.4 CALM 0 0 1007.6 - 15.2 - - - - - - -
26/01:00am 23.4 CALM 0 0 1007.7 - 15.2 - - - - - - -
26/12:30am 23.6 CALM 0 3 1007.8 - 15.2 - - - - - - -
26/12:00am 23.7 CALM 0 3 1008.2 - 15.2 - - - - - - -
 
Date/Time
EST
Temp

°C
Wind Pressure Rain
since 9am
mm
Weather Cloud Vis
km
Sea
Height
m
Swell
Dir
 
Speed
knots
Gust
knots
hPa Trend Height
m
Period
s
Dir
25/11:30pm 23.9 CALM 0 0 1008.6 - 15.2 - - - - - - -
25/11:00pm 23.9 W 2 4 1008.7 - 15.2 - - - - - - -
25/10:30pm 23.9 CALM 0 3 1008.6 - 15.2 - - - - - - -
25/10:00pm 24.0 CALM 0 3 1008.8 - 15.2 - - - - - - -
25/09:30pm 24.0 WNW 1 4 1008.5 - 15.2 - - - - - - -
25/09:00pm 24.3 W 1 4 1008.2 - 15.2 - - - - - - -
25/08:30pm 24.3 CALM 0 3 1007.9 - 15.2 - - - - - - -
25/08:00pm 24.3 WSW 2 5 1007.7 - 15.2 - - - - - - -
25/07:30pm 24.5 WSW 3 5 1007.5 - 15.2 - - - - - - -
25/07:00pm 24.5 W 1 4 1007.2 - 15.2 - - - - - - -
25/06:30pm 25.0 WSW 3 4 1007.1 - 15.2 - - - - - - -
25/06:00pm 25.2 WSW 4 7 1006.9 - 15.2 - - - - - - -
25/05:30pm 25.1 W 3 6 1006.7 - 15.2 - - - - - - -
25/05:00pm 25.1 W 3 8 1006.7 - 15.2 - - - - - - -
25/04:30pm 24.5 W 3 6 1006.7 - 15.2 - - - - - - -
25/04:00pm 24.4 WSW 5 7 1006.6 - 14.8 - - - - - - -
25/03:30pm 24.5 SW 4 7 1007.1 - 13.0 - - - - - - -
25/03:00pm 25.0 ENE 3 5 1007.3 - 10.4 - - - - - - -
25/02:30pm 26.1 ENE 9 16 1007.3 - 8.0 - - - - - - -
25/02:00pm 28.2 CALM 0 3 1007.5 - 8.0 - - - - - - -
25/01:30pm 28.0 CALM 0 5 1007.7 - 8.0 - - - - - - -
25/01:00pm 27.6 CALM 0 0 1008.3 - 8.0 - - - - - - -
25/12:30pm 25.7 WSW 5 6 1008.4 - 8.0 - - - - - - -
25/12:00pm 24.9 CALM 0 3 1008.6 - 4.2 - - - - - - -
25/11:30am 25.9 N 2 6 1009.0 - 3.2 - - - - - - -
25/11:00am 30.3 SW 2 7 1008.7 - 0.4 - - - - - - -
25/10:30am 31.7 ENE 1 5 1008.8 - 0.0 - - - - - - -
25/10:00am 30.0 CALM 0 0 1009.1 - 0.0 - - - - - - -
25/09:30am 29.5 CALM 0 2 1009.3 - 0.0 - - - - - - -
25/09:00am 29.4 CALM 0 0 1009.1 - 0.0 - - - - - - -
25/08:30am 28.8 SW 2 5 1009.2 - 0.0 - - - - - - -
25/08:00am 27.3 CALM 0 4 1009.1 - 0.0 - - - - - - -
25/07:30am 26.8 W 3 6 1008.5 - 0.0 - - - - - - -
25/07:00am 25.6 WNW 2 4 1007.9 - 0.0 - - - - - - -
25/06:30am 25.1 CALM 0 0 1007.9 - 0.0 - - - - - - -
25/06:00am 25.2 CALM 0 0 1007.7 - 0.0 - - - - - - -
25/05:30am 25.4 CALM 0 0 1007.9 - 0.0 - - - - - - -
25/05:00am 25.4 CALM 0 0 1007.6 - 0.0 - - - - - - -
25/04:30am 25.6 CALM 0 3 1007.2 - 0.0 - - - - - - -
25/04:00am 25.7 CALM 0 0 1006.9 - 0.0 - - - - - - -
25/03:30am 25.8 NW 1 4 1007.0 - 0.0 - - - - - - -
25/03:00am 25.9 CALM 0 0 1006.9 - 0.0 - - - - - - -
25/02:30am 26.0 CALM 0 1 1007.1 - 0.0 - - - - - - -
25/02:00am 26.3 CALM 0 3 1007.2 - 0.0 - - - - - - -
25/01:30am 26.5 CALM 0 4 1007.3 - 0.0 - - - - - - -
25/01:00am 26.5 WSW 3 5 1007.8 - 0.0 - - - - - - -
25/12:30am 26.7 CALM 0 0 1007.7 - 0.0 - - - - - - -
25/12:00am 27.0 CALM 0 0 1008.0 - 0.0 - - - - - - -
 
Date/Time
EST
Temp

°C
Wind Pressure Rain
since 9am
mm
Weather Cloud Vis
km
Sea
Height
m
Swell
Dir
 
Speed
knots
Gust
knots
hPa Trend Height
m
Period
s
Dir
24/11:30pm 27.2 CALM 0 0 1008.4 - 0.0 - - - - - - -
24/11:00pm 27.4 CALM 0 0 1008.5 - 0.0 - - - - - - -
24/10:30pm 27.5 SSW 3 5 1008.5 - 0.0 - - - - - - -
24/10:00pm 27.7 CALM 0 3 1008.8 - 0.0 - - - - - - -
24/09:30pm 27.9 SW 2 5 1008.7 - 0.0 - - - - - - -
24/09:00pm 28.0 CALM 0 3 1008.6 - 0.0 - - - - - - -
24/08:30pm 28.1 SSW 2 4 1008.4 - 0.0 - - - - - - -
24/08:00pm 28.4 CALM 0 0 1007.9 - 0.0 - - - - - - -
24/07:30pm 28.6 CALM 0 0 1007.8 - 0.0 - - - - - - -
24/07:00pm 28.6 CALM 0 0 1007.3 - 0.0 - - - - - - -
24/06:30pm 29.0 E 3 5 1007.2 - 0.0 - - - - - - -
24/06:00pm 29.5 E 3 5 1006.6 - 0.0 - - - - - - -
24/05:30pm 30.0 E 5 7 1006.4 - 0.0 - - - - - - -
24/05:00pm 30.4 E 6 9 1005.8 - 0.0 - - - - - - -
24/04:30pm 30.6 E 6 9 1005.6 - 0.0 - - - - - - -
24/04:00pm 31.2 E 7 11 1005.8 - 0.0 - - - - - - -
24/03:30pm 31.6 E 7 11 1005.8 - 0.0 - - - - - - -
24/03:00pm 32.1 ESE 8 12 1005.6 - 0.0 - - - - - - -
24/02:30pm 31.9 E 7 11 1006.2 - 0.0 - - - - - - -

Other Formats:

Comma delimited format used in spreadsheet applications
http://www.bom.gov.au/fwo/IDQ60701/IDQ60701.95292.axf

JavaScript Object Notation format (JSON) in row-major order
http://www.bom.gov.au/fwo/IDQ60701/IDQ60701.95292.json